Time;durP1;ratioP1;P1;durP2;ratioP2;P2;SDS_P1;SDS_P2;PMS_P1;PMS_P2;Temp;Humidity;BMP_temperature;BMP_pressure;BME280_temperature;BME280_humidity;BME280_pressure;Samples;Min_cycle;Max_cycle;Signal;HPM_P1;HPM_P2
2023/04/06 00:01:14;;;;;;;7.93;3.78;;;;;;;9.99;41.78;101774.38;5004099;28;98330;-71
2023/04/06 00:03:41;;;;;;;9.70;4.63;;;;;;;9.72;42.19;101775.69;5009804;28;97798;-72
2023/04/06 00:06:07;;;;;;;5.95;3.53;;;;;;;9.70;42.23;101774.88;5003363;28;98790;-70
2023/04/06 00:08:34;;;;;;;8.40;3.72;;;;;;;9.89;41.73;101770.16;5006656;28;97572;-70
2023/04/06 00:11:00;;;;;;;6.63;3.78;;;;;;;9.69;42.35;101767.84;5002360;28;97652;-70
2023/04/06 00:13:27;;;;;;;6.00;3.83;;;;;;;9.73;42.34;101772.16;5005240;28;98296;-71
2023/04/06 00:15:54;;;;;;;8.10;3.70;;;;;;;9.43;42.92;101767.38;5006541;28;101266;-70
2023/04/06 00:18:21;;;;;;;8.00;3.90;;;;;;;9.70;42.34;101766.94;5001698;28;96750;-70
2023/04/06 00:20:47;;;;;;;7.10;3.85;;;;;;;9.48;42.56;101760.25;5002724;28;96908;-70
2023/04/06 00:23:13;;;;;;;7.65;3.53;;;;;;;9.48;42.69;101761.13;5014662;28;99036;-70
2023/04/06 00:25:40;;;;;;;6.50;3.72;;;;;;;9.73;42.22;101758.09;5006391;28;98741;-70
2023/04/06 00:28:06;;;;;;;6.75;3.53;;;;;;;9.53;42.54;101758.41;5013762;28;96772;-69
2023/04/06 00:30:32;;;;;;;4.00;3.40;;;;;;;9.44;42.92;101753.28;5013349;28;97352;-71
2023/04/06 00:33:00;;;;;;;7.18;3.25;;;;;;;9.47;42.13;101753.22;5007158;28;99067;-69
2023/04/06 00:35:27;;;;;;;6.10;3.47;;;;;;;9.57;42.24;101758.34;5009252;28;99011;-69
2023/04/06 00:37:53;;;;;;;5.93;3.75;;;;;;;9.64;42.25;101751.22;5013911;28;97362;-68
2023/04/06 00:40:20;;;;;;;11.20;4.40;;;;;;;9.59;42.08;101753.03;5010893;28;97329;-70
2023/04/06 00:42:47;;;;;;;9.57;3.63;;;;;;;9.58;41.86;101756.59;5013756;28;97561;-70
2023/04/06 00:45:13;;;;;;;8.00;3.15;;;;;;;9.77;41.35;101747.47;5007266;28;102474;-70
2023/04/06 00:47:40;;;;;;;5.70;3.28;;;;;;;9.55;41.69;101741.66;5005070;28;97098;-70
2023/04/06 00:50:09;;;;;;;7.03;3.75;;;;;;;9.70;41.65;101748.47;5012725;27;96750;-71
2023/04/06 00:52:35;;;;;;;5.03;3.53;;;;;;;9.39;41.84;101749.81;5006360;28;100401;-70
2023/04/06 00:55:02;;;;;;;10.13;4.47;;;;;;;9.59;41.72;101748.63;5006355;27;99351;-70
2023/04/06 00:57:28;;;;;;;10.85;3.50;;;;;;;9.65;41.36;101747.66;5001927;28;97216;-70
2023/04/06 00:59:55;;;;;;;7.55;3.42;;;;;;;9.44;41.50;101748.88;5003800;28;97618;-70
2023/04/06 01:02:21;;;;;;;10.30;4.20;;;;;;;9.30;42.04;101747.34;5003211;28;97635;-71
2023/04/06 01:04:48;;;;;;;7.00;3.75;;;;;;;9.56;41.63;101742.53;4996615;28;99523;-70
2023/04/06 01:07:15;;;;;;;6.03;3.50;;;;;;;9.37;41.41;101741.94;4999950;28;97560;-70
2023/04/06 01:09:41;;;;;;;12.43;3.67;;;;;;;9.33;41.81;101744.63;4999918;28;97820;-70
2023/04/06 01:12:08;;;;;;;7.75;3.53;;;;;;;9.57;41.51;101749.56;5001940;28;98947;-70
2023/04/06 01:14:34;;;;;;;6.80;3.30;;;;;;;9.50;41.32;101743.50;5005564;28;99170;-70
2023/04/06 01:17:01;;;;;;;9.52;3.83;;;;;;;9.45;41.98;101744.47;5000620;28;98739;-70
2023/04/06 01:19:28;;;;;;;6.28;3.75;;;;;;;9.27;42.06;101742.09;5009152;28;96746;-69
2023/04/06 01:21:55;;;;;;;7.13;3.22;;;;;;;9.13;42.46;101744.91;5003838;28;99329;-70
2023/04/06 01:24:23;;;;;;;4.85;3.00;;;;;;;9.27;42.39;101740.31;5008487;28;101586;-71
2023/04/06 01:26:49;;;;;;;7.07;3.70;;;;;;;9.24;42.47;101744.78;5006631;28;97014;-71
2023/04/06 01:29:16;;;;;;;5.35;3.95;;;;;;;9.14;42.71;101744.03;5004901;28;98410;-70
2023/04/06 01:31:42;;;;;;;9.85;3.33;;;;;;;9.30;42.46;101739.41;5011235;28;98891;-71
2023/04/06 01:34:09;;;;;;;6.80;3.65;;;;;;;9.22;42.33;101741.28;5007575;28;98206;-70
2023/04/06 01:36:35;;;;;;;6.60;3.65;;;;;;;9.39;42.26;101745.41;5011992;28;97352;-70
2023/04/06 01:39:02;;;;;;;7.70;3.67;;;;;;;9.15;42.70;101735.22;5010487;27;96911;-70
2023/04/06 01:41:29;;;;;;;7.97;3.80;;;;;;;9.27;42.50;101742.97;4997159;28;97970;-70
2023/04/06 01:43:56;;;;;;;5.00;3.35;;;;;;;9.25;42.81;101741.25;5012022;28;99222;-70
2023/04/06 01:46:22;;;;;;;5.95;3.35;;;;;;;9.24;42.45;101742.16;5003576;28;97150;-70
2023/04/06 01:48:48;;;;;;;7.65;3.63;;;;;;;9.27;42.25;101740.31;5003303;28;96930;-69
2023/04/06 01:51:15;;;;;;;12.27;3.95;;;;;;;9.27;42.12;101740.31;5004113;28;99749;-69
2023/04/06 01:53:41;;;;;;;7.93;3.70;;;;;;;9.09;42.78;101741.47;5007621;28;97983;-69
2023/04/06 01:56:07;;;;;;;6.40;3.55;;;;;;;9.05;43.02;101731.00;5011267;28;97024;-70
2023/04/06 01:58:35;;;;;;;9.57;3.92;;;;;;;9.18;42.47;101736.06;5010361;28;96906;-69
2023/04/06 02:01:02;;;;;;;11.15;4.05;;;;;;;9.09;42.70;101730.91;4999873;28;101038;-69
2023/04/06 02:03:28;;;;;;;8.48;3.63;;;;;;;8.97;42.66;101731.09;5011678;28;99223;-72
2023/04/06 02:05:55;;;;;;;7.18;3.78;;;;;;;9.09;42.58;101735.31;4993106;28;97876;-69
2023/04/06 02:08:21;;;;;;;8.85;3.90;;;;;;;9.15;42.67;101730.81;5001562;28;98509;-69
2023/04/06 02:10:48;;;;;;;7.07;4.13;;;;;;;9.05;42.49;101736.25;5008362;28;99669;-69
2023/04/06 02:13:14;;;;;;;10.52;4.05;;;;;;;8.92;42.84;101737.31;5010978;28;99708;-69
2023/04/06 02:15:42;;;;;;;8.48;3.55;;;;;;;8.98;42.92;101732.84;5006705;28;97347;-71
2023/04/06 02:18:09;;;;;;;10.02;4.68;;;;;;;8.96;42.91;101739.88;5005160;28;96910;-70
2023/04/06 02:20:35;;;;;;;7.38;3.20;;;;;;;9.19;42.67;101731.63;5004856;28;98039;-71
2023/04/06 02:23:02;;;;;;;7.72;3.75;;;;;;;9.18;42.70;101735.19;5005544;28;98090;-69
2023/04/06 02:25:28;;;;;;;7.43;3.70;;;;;;;8.97;43.22;101739.00;5004288;28;98568;-70
2023/04/06 02:27:55;;;;;;;9.90;4.38;;;;;;;9.09;42.99;101730.91;5007552;28;97589;-72
2023/04/06 02:30:21;;;;;;;9.20;3.88;;;;;;;9.08;43.64;101730.94;4999721;28;100815;-71
2023/04/06 02:32:49;;;;;;;9.32;3.97;;;;;;;8.98;44.00;101727.56;5006567;28;99414;-71
2023/04/06 02:35:15;;;;;;;7.30;4.63;;;;;;;8.95;43.90;101743.41;5003198;28;97203;-69
2023/04/06 02:37:42;;;;;;;9.32;4.13;;;;;;;8.88;43.98;101736.47;5007848;28;98551;-70
2023/04/06 02:40:09;;;;;;;8.55;3.90;;;;;;;8.42;44.92;101735.25;5006937;28;99137;-70
2023/04/06 02:42:36;;;;;;;11.30;4.38;;;;;;;8.64;44.84;101731.50;5009849;28;97782;-70
2023/04/06 02:45:02;;;;;;;9.50;4.15;;;;;;;8.42;44.91;101744.03;5007468;28;96864;-71
2023/04/06 02:47:29;;;;;;;8.65;3.78;;;;;;;8.54;44.79;101741.25;5010337;28;97372;-71
2023/04/06 02:49:56;;;;;;;9.82;3.83;;;;;;;8.27;45.43;101737.13;5010542;28;99655;-71
2023/04/06 02:52:23;;;;;;;8.27;4.13;;;;;;;8.17;45.69;101739.88;5009724;28;97994;-70
2023/04/06 02:54:50;;;;;;;7.55;4.30;;;;;;;8.38;45.45;101739.72;5004621;28;98243;-70
2023/04/06 02:57:17;;;;;;;9.40;4.10;;;;;;;8.44;45.09;101739.63;5003452;28;100218;-71
2023/04/06 02:59:43;;;;;;;9.63;3.63;;;;;;;8.40;45.32;101743.22;5008398;28;97745;-70
2023/04/06 03:02:09;;;;;;;7.90;4.50;;;;;;;8.16;45.70;101741.66;5009843;28;100151;-70
2023/04/06 03:04:36;;;;;;;7.45;4.07;;;;;;;8.22;45.28;101748.59;5007748;28;98506;-70
2023/04/06 03:07:04;;;;;;;10.00;4.43;;;;;;;8.02;45.75;101743.53;5002835;28;97377;-71
2023/04/06 03:09:30;;;;;;;8.02;4.00;;;;;;;7.97;46.21;101743.59;5008110;28;97241;-70
2023/04/06 03:11:57;;;;;;;8.48;4.20;;;;;;;8.14;45.48;101746.03;5009720;28;99317;-71
2023/04/06 03:14:23;;;;;;;7.82;4.38;;;;;;;8.10;45.67;101744.34;4999841;28;99468;-69
2023/04/06 03:16:50;;;;;;;9.13;4.35;;;;;;;8.13;45.46;101748.72;5016763;28;97045;-71
2023/04/06 03:19:16;;;;;;;10.27;4.35;;;;;;;7.93;45.76;101747.13;5007235;28;98961;-70
2023/04/06 03:21:42;;;;;;;8.95;4.38;;;;;;;8.14;45.38;101751.31;5013982;28;99215;-70
2023/04/06 03:24:10;;;;;;;8.50;4.30;;;;;;;7.93;45.87;101752.41;5008929;28;99865;-69
2023/04/06 03:26:36;;;;;;;8.20;4.25;;;;;;;8.02;45.76;101754.06;5012582;28;97008;-70
2023/04/06 03:29:03;;;;;;;8.55;4.30;;;;;;;7.72;46.40;101751.69;5007299;28;97857;-69
2023/04/06 03:31:30;;;;;;;6.90;4.10;;;;;;;8.01;45.67;101754.94;5014270;28;98962;-69
2023/04/06 03:33:56;;;;;;;7.90;4.22;;;;;;;7.93;45.73;101752.41;5003695;28;97678;-70
2023/04/06 03:36:23;;;;;;;8.85;4.43;;;;;;;7.70;46.41;101756.09;5009030;28;97462;-69
2023/04/06 03:38:49;;;;;;;7.45;4.38;;;;;;;7.65;46.55;101755.25;5007635;28;99019;-69
2023/04/06 03:41:17;;;;;;;9.48;4.93;;;;;;;7.91;46.24;101762.06;5011740;28;99236;-69
2023/04/06 03:43:44;;;;;;;9.10;4.68;;;;;;;7.50;47.42;101762.38;5010191;28;98183;-70
2023/04/06 03:46:10;;;;;;;12.60;4.75;;;;;;;7.65;47.32;101771.91;5010423;28;97441;-71
2023/04/06 03:48:37;;;;;;;10.73;4.85;;;;;;;7.70;47.06;101769.25;5010419;28;98889;-71
2023/04/06 03:51:03;;;;;;;14.27;5.07;;;;;;;7.64;47.16;101774.56;5002964;28;97474;-71
2023/04/06 03:53:30;;;;;;;13.75;5.18;;;;;;;7.65;47.39;101773.66;4999680;28;97694;-70
2023/04/06 03:55:56;;;;;;;8.38;4.82;;;;;;;7.69;47.30;101778.00;5013210;28;96978;-70
2023/04/06 03:58:24;;;;;;;8.13;5.18;;;;;;;7.76;47.30;101769.19;5008980;28;99027;-70
2023/04/06 04:00:50;;;;;;;9.55;4.90;;;;;;;7.54;47.85;101771.13;5009917;28;98803;-69
2023/04/06 04:03:17;;;;;;;10.18;4.93;;;;;;;7.80;47.23;101776.19;5009049;28;97958;-70
2023/04/06 04:05:44;;;;;;;10.82;5.15;;;;;;;7.52;47.67;101784.28;5010008;28;97009;-69
2023/04/06 04:08:10;;;;;;;10.07;5.03;;;;;;;7.71;47.38;101781.53;5013944;28;99009;-72
2023/04/06 04:10:36;;;;;;;13.50;5.22;;;;;;;7.70;47.27;101779.75;5010251;28;99161;-70
2023/04/06 04:13:03;;;;;;;9.88;4.85;;;;;;;7.77;47.04;101784.09;5012840;28;96800;-70
2023/04/06 04:15:30;;;;;;;13.30;5.28;;;;;;;7.34;47.97;101786.16;5007070;28;96831;-70
2023/04/06 04:17:57;;;;;;;8.07;4.82;;;;;;;7.29;48.61;101787.91;5010234;28;98911;-70
2023/04/06 04:20:24;;;;;;;11.80;5.53;;;;;;;7.53;48.17;101780.78;5008323;28;98961;-70
2023/04/06 04:22:50;;;;;;;10.82;5.60;;;;;;;7.52;47.89;101788.66;5015378;28;97458;-68
2023/04/06 04:25:16;;;;;;;12.73;5.90;;;;;;;7.42;47.94;101793.09;5002787;28;97951;-68
2023/04/06 04:27:43;;;;;;;13.25;5.40;;;;;;;7.51;48.08;101786.91;5011266;28;98636;-69
2023/04/06 04:30:09;;;;;;;10.20;5.63;;;;;;;7.45;48.12;101779.06;5011364;28;98866;-71
2023/04/06 04:32:37;;;;;;;12.00;5.47;;;;;;;7.67;47.74;101785.94;5010931;28;96814;-70
2023/04/06 04:35:04;;;;;;;11.43;5.93;;;;;;;7.55;48.04;101786.00;5002390;28;96922;-69
2023/04/06 04:37:31;;;;;;;11.57;6.28;;;;;;;7.20;48.62;101788.84;5003387;28;98975;-71
2023/04/06 04:39:57;;;;;;;9.00;5.50;;;;;;;7.47;47.99;101793.97;5008200;28;101207;-69
2023/04/06 04:42:23;;;;;;;12.25;5.82;;;;;;;7.24;48.39;101800.22;5005472;28;96867;-70
2023/04/06 04:44:50;;;;;;;11.40;5.75;;;;;;;7.50;48.14;101787.78;5012114;28;98359;-70
2023/04/06 04:47:16;;;;;;;9.63;5.70;;;;;;;7.56;48.07;101796.50;5003806;28;98852;-70
2023/04/06 04:49:44;;;;;;;12.70;5.80;;;;;;;7.57;48.13;101793.00;5006174;28;98795;-68
2023/04/06 04:52:10;;;;;;;11.80;5.80;;;;;;;7.61;47.88;101799.13;5006026;28;99695;-69
2023/04/06 04:54:37;;;;;;;8.07;5.68;;;;;;;7.40;48.46;101802.78;4999810;28;97124;-71
2023/04/06 04:57:04;;;;;;;14.25;6.05;;;;;;;7.66;47.99;101796.47;5005403;28;98889;-69
2023/04/06 04:59:30;;;;;;;12.13;6.00;;;;;;;7.39;48.39;101805.41;5005349;28;99388;-71
2023/04/06 05:01:56;;;;;;;14.57;6.53;;;;;;;7.49;48.49;101797.44;5013605;27;98890;-70
2023/04/06 05:04:23;;;;;;;14.88;6.65;;;;;;;7.65;48.06;101799.97;4996338;28;97151;-70
2023/04/06 05:06:51;;;;;;;13.20;5.95;;;;;;;7.60;47.68;101803.53;5002761;28;99073;-70
2023/04/06 05:09:18;;;;;;;9.20;6.25;;;;;;;7.50;48.13;101799.19;4999930;28;99015;-72
2023/04/06 05:11:44;;;;;;;12.05;6.68;;;;;;;7.56;47.87;101800.91;5002588;28;97312;-71
2023/04/06 05:14:10;;;;;;;14.30;6.18;;;;;;;7.73;47.58;101804.31;5004434;28;97562;-70
2023/04/06 05:16:37;;;;;;;15.35;6.47;;;;;;;8.08;46.81;101798.75;5001850;28;100069;-71
2023/04/06 05:19:03;;;;;;;14.85;7.20;;;;;;;7.96;47.00;101798.84;4998570;28;99098;-71
2023/04/06 05:21:30;;;;;;;13.00;6.32;;;;;;;7.93;47.18;101804.16;5012067;28;97252;-69
2023/04/06 05:23:57;;;;;;;16.45;6.72;;;;;;;7.86;47.50;101803.34;5007528;28;97549;-70
2023/04/06 05:26:24;;;;;;;12.68;7.10;;;;;;;8.08;47.02;101803.13;5006251;28;98866;-70
2023/04/06 05:28:52;;;;;;;12.63;7.15;;;;;;;7.91;47.60;101808.56;5004782;28;100441;-70
2023/04/06 05:31:18;;;;;;;15.90;6.45;;;;;;;8.25;47.22;101810.03;4999550;28;97566;-71
2023/04/06 05:33:44;;;;;;;14.88;7.75;;;;;;;8.30;46.79;101813.50;4997560;28;99116;-71
2023/04/06 05:36:11;;;;;;;11.23;7.45;;;;;;;8.38;46.78;101809.06;4998940;28;99242;-71
2023/04/06 05:38:38;;;;;;;10.85;6.53;;;;;;;8.66;46.49;101816.69;5002848;28;98008;-69
2023/04/06 05:41:08;;;;;;;17.60;7.30;;;;;;;8.53;46.48;101813.31;5000124;28;97266;-70
2023/04/06 05:43:34;;;;;;;13.18;7.82;;;;;;;8.74;45.81;101812.19;5004568;28;96840;-71
2023/04/06 05:46:01;;;;;;;13.57;6.57;;;;;;;8.84;45.37;101819.13;5001428;28;99387;-71
2023/04/06 05:48:28;;;;;;;13.23;7.50;;;;;;;9.00;45.03;101814.50;5003288;28;98880;-71
2023/04/06 05:50:55;;;;;;;13.35;6.78;;;;;;;9.12;44.98;101814.38;5005720;28;96734;-71
2023/04/06 05:53:22;;;;;;;13.70;7.25;;;;;;;9.05;44.78;101818.00;5009598;28;97280;-71
2023/04/06 05:55:48;;;;;;;13.70;7.18;;;;;;;9.00;44.74;101815.38;5002985;28;98842;-71
2023/04/06 05:58:17;;;;;;;13.57;6.78;;;;;;;9.13;44.49;101808.19;4998550;28;99053;-70
2023/04/06 06:00:45;;;;;;;13.57;7.10;;;;;;;9.44;44.08;101820.13;5010059;28;96927;-71
2023/04/06 06:03:15;;;;;;;14.20;6.72;;;;;;;9.31;43.94;101812.38;5002617;28;96797;-72
2023/04/06 06:05:41;;;;;;;19.63;7.07;;;;;;;9.16;44.17;101811.69;4994057;28;102178;-71
2023/04/06 06:08:08;;;;;;;13.20;7.43;;;;;;;9.54;43.41;101813.78;5006023;28;99245;-70
2023/04/06 06:10:34;;;;;;;13.43;6.93;;;;;;;9.57;43.46;101812.91;5006444;28;98976;-71
2023/04/06 06:13:01;;;;;;;10.70;6.40;;;;;;;9.76;43.04;101819.66;5003313;28;97328;-72
2023/04/06 06:15:29;;;;;;;18.05;7.88;;;;;;;9.83;43.24;101821.28;5002072;28;99771;-69
2023/04/06 06:17:55;;;;;;;15.75;6.53;;;;;;;10.07;42.33;101817.38;4997148;28;98823;-71
2023/04/06 06:20:22;;;;;;;12.38;6.60;;;;;;;10.15;42.08;101822.53;5007181;28;96803;-70
2023/04/06 06:22:52;;;;;;;14.00;5.90;;;;;;;10.07;42.03;101824.44;4995424;28;97637;-70
2023/04/06 06:25:18;;;;;;;15.38;6.38;;;;;;;10.12;42.08;101825.22;5002153;28;99227;-71
2023/04/06 06:27:45;;;;;;;14.05;6.03;;;;;;;10.07;42.33;101812.09;5002682;28;99409;-70
2023/04/06 06:30:12;;;;;;;22.25;7.00;;;;;;;10.39;41.33;101814.22;5006467;28;96852;-70
2023/04/06 06:32:40;;;;;;;13.10;6.32;;;;;;;10.35;41.08;101820.47;5000895;28;96894;-71
2023/04/06 06:35:07;;;;;;;12.82;6.50;;;;;;;10.65;40.36;101825.19;5003366;28;101814;-71
2023/04/06 06:37:35;;;;;;;14.68;6.75;;;;;;;10.68;40.34;101818.97;5002283;28;98859;-72
2023/04/06 06:40:04;;;;;;;13.98;6.45;;;;;;;10.89;39.63;101823.00;5005610;28;98150;-69
2023/04/06 06:42:31;;;;;;;11.68;6.72;;;;;;;10.90;40.15;101822.94;4999956;28;97347;-70
2023/04/06 06:44:57;;;;;;;12.13;6.70;;;;;;;10.72;39.79;101821.53;4997328;28;99470;-72
2023/04/06 06:47:25;;;;;;;13.70;6.00;;;;;;;10.96;39.46;101819.31;4994158;28;100082;-72
2023/04/06 06:49:52;;;;;;;15.63;5.30;;;;;;;11.05;38.94;101819.13;5009807;28;96907;-70
2023/04/06 06:52:20;;;;;;;15.57;6.43;;;;;;;11.24;38.58;101823.13;5003465;28;96903;-70
2023/04/06 06:54:46;;;;;;;9.15;5.95;;;;;;;11.62;37.93;101818.78;5008440;28;100802;-70
2023/04/06 06:57:13;;;;;;;10.18;5.35;;;;;;;11.94;37.09;101821.59;5002502;28;99469;-72
2023/04/06 06:59:39;;;;;;;9.73;5.13;;;;;;;11.75;36.83;101817.63;5009480;28;97005;-72
2023/04/06 07:02:06;;;;;;;11.18;5.43;;;;;;;11.91;37.04;101819.88;4998163;28;97192;-70
2023/04/06 07:04:32;;;;;;;10.32;5.47;;;;;;;11.71;37.55;101826.50;5001994;28;97819;-70
2023/04/06 07:07:01;;;;;;;11.48;5.55;;;;;;;11.89;37.13;101819.03;5006011;28;97727;-71
2023/04/06 07:09:27;;;;;;;13.23;5.88;;;;;;;11.96;37.09;101819.75;5004438;28;96701;-72
2023/04/06 07:11:54;;;;;;;9.43;5.47;;;;;;;12.01;36.97;101819.66;5008041;28;96884;-71
2023/04/06 07:14:20;;;;;;;9.45;4.57;;;;;;;11.96;36.20;101810.03;5008406;28;97893;-72
2023/04/06 07:16:48;;;;;;;12.38;5.15;;;;;;;11.43;36.83;101826.25;5005169;28;98951;-72
2023/04/06 07:19:15;;;;;;;8.80;4.78;;;;;;;12.07;36.47;101820.38;4999327;28;96784;-70
2023/04/06 07:21:41;;;;;;;12.77;5.28;;;;;;;11.80;36.75;101829.84;5005100;28;96988;-71
2023/04/06 07:24:09;;;;;;;10.60;4.95;;;;;;;12.29;36.02;101820.69;5007862;28;98281;-71
2023/04/06 07:26:35;;;;;;;9.60;5.18;;;;;;;12.35;35.88;101816.09;5007487;28;98784;-73
2023/04/06 07:29:02;;;;;;;10.52;5.20;;;;;;;12.21;35.93;101815.56;5012751;28;96861;-71
2023/04/06 07:31:28;;;;;;;9.05;4.18;;;;;;;12.24;35.39;101815.50;5009783;28;96917;-70
2023/04/06 07:33:55;;;;;;;10.80;4.65;;;;;;;12.61;34.84;101818.06;5011465;28;99112;-69
2023/04/06 07:36:21;;;;;;;7.45;4.50;;;;;;;12.62;35.06;101816.28;5008064;28;98788;-69
2023/04/06 07:38:48;;;;;;;9.63;4.70;;;;;;;13.02;34.37;101808.09;5012265;28;97093;-70
2023/04/06 07:41:16;;;;;;;7.18;4.70;;;;;;;12.92;34.50;101815.47;5012981;28;97016;-71
2023/04/06 07:43:43;;;;;;;5.80;3.97;;;;;;;13.00;33.11;101815.22;5005052;28;102121;-71
2023/04/06 07:46:09;;;;;;;8.32;4.03;;;;;;;13.35;33.06;101814.22;5010920;28;98984;-71
2023/04/06 07:48:37;;;;;;;7.68;3.67;;;;;;;13.41;32.58;101822.00;5006180;28;97465;-71
2023/04/06 07:51:06;;;;;;;8.75;4.25;;;;;;;13.29;32.52;101812.63;5011127;28;96907;-71
2023/04/06 07:53:32;;;;;;;8.43;4.80;;;;;;;13.73;32.11;101813.03;5012012;28;98855;-71
2023/04/06 07:55:59;;;;;;;11.40;4.40;;;;;;;13.89;32.07;101815.16;5005977;28;97821;-71
2023/04/06 07:58:26;;;;;;;12.52;4.35;;;;;;;13.80;31.55;101815.44;5011911;28;97294;-71
2023/04/06 08:00:54;;;;;;;11.93;4.68;;;;;;;13.97;31.23;101817.59;5007894;28;96824;-73
2023/04/06 08:03:25;;;;;;;9.93;4.90;;;;;;;14.18;31.36;101813.31;5000250;28;99397;-73
2023/04/06 08:05:51;;;;;;;7.88;3.80;;;;;;;14.21;31.02;101813.22;5007878;28;101868;-70
2023/04/06 08:08:18;;;;;;;7.78;3.28;;;;;;;14.32;30.99;101811.94;5007272;28;96965;-71
2023/04/06 08:10:44;;;;;;;6.70;3.40;;;;;;;14.60;30.15;101813.69;5010929;28;96974;-72
2023/04/06 08:13:11;;;;;;;8.10;3.20;;;;;;;14.63;29.83;101814.47;5010541;28;98932;-71
2023/04/06 08:15:38;;;;;;;5.70;3.42;;;;;;;14.32;29.92;101819.91;5008447;28;99606;-71
2023/04/06 08:18:05;;;;;;;8.68;3.70;;;;;;;14.08;30.44;101815.44;5009683;28;97293;-71
2023/04/06 08:20:32;;;;;;;6.57;3.20;;;;;;;14.58;30.14;101816.38;5008437;28;97468;-70
2023/04/06 08:22:58;;;;;;;7.38;3.50;;;;;;;14.53;30.27;101818.34;5009783;28;98459;-71
2023/04/06 08:25:25;;;;;;;7.40;3.13;;;;;;;14.43;29.54;101821.41;5008648;28;103566;-71
2023/04/06 08:27:51;;;;;;;4.82;3.05;;;;;;;14.29;29.70;101814.72;5009708;28;96962;-72
2023/04/06 08:30:19;;;;;;;7.43;2.80;;;;;;;14.50;29.74;101821.13;5011944;28;97250;-71
2023/04/06 08:32:47;;;;;;;8.05;2.92;;;;;;;14.14;29.49;101815.22;5007330;28;99247;-73
2023/04/06 08:35:13;;;;;;;7.22;2.60;;;;;;;14.58;29.84;101820.84;5008130;28;99638;-72
2023/04/06 08:37:40;;;;;;;7.82;2.60;;;;;;;14.92;28.64;101817.84;5008560;28;96876;-72
2023/04/06 08:40:08;;;;;;;6.47;2.70;;;;;;;14.81;28.44;101822.69;5007044;28;96939;-73
2023/04/06 08:42:40;;;;;;;5.53;2.80;;;;;;;14.74;28.17;101820.25;5010315;28;97843;-73
2023/04/06 08:45:08;;;;;;;4.35;2.85;;;;;;;14.52;28.76;101821.94;5007882;28;101064;-71
2023/04/06 08:47:35;;;;;;;5.13;2.50;;;;;;;14.55;28.42;101812.97;5007867;28;96876;-71
2023/04/06 08:50:12;;;;;;;5.30;2.60;;;;;;;14.87;27.68;101823.34;5010238;28;97016;-73
2023/04/06 08:52:39;;;;;;;5.85;2.70;;;;;;;14.85;27.55;101808.34;5009459;28;99588;-71
2023/04/06 08:55:07;;;;;;;2.85;1.90;;;;;;;14.66;26.45;101814.34;5008105;28;98865;-72
2023/04/06 08:57:36;;;;;;;6.60;2.67;;;;;;;15.15;26.74;101813.44;5004235;28;97667;-71
2023/04/06 09:00:03;;;;;;;3.70;2.80;;;;;;;15.02;27.04;101809.47;5008516;28;96924;-71
2023/04/06 09:02:30;;;;;;;7.05;2.40;;;;;;;15.24;26.95;101812.19;5008828;28;98916;-71
2023/04/06 09:04:58;;;;;;;3.47;2.03;;;;;;;15.09;25.98;101816.31;5006603;28;99017;-70
2023/04/06 09:07:25;;;;;;;3.65;1.80;;;;;;;14.76;26.24;101809.56;5001490;28;97516;-71
2023/04/06 09:09:52;;;;;;;5.72;1.77;;;;;;;15.03;26.01;101813.03;5009360;28;96883;-72
2023/04/06 09:12:26;;;;;;;4.05;2.00;;;;;;;15.23;25.97;101805.13;5003853;28;99187;-72
2023/04/06 09:14:52;;;;;;;4.40;1.65;;;;;;;15.55;25.52;101806.59;5006330;28;99153;-71
2023/04/06 09:17:22;;;;;;;4.13;2.13;;;;;;;15.09;25.44;101812.78;5004347;28;97949;-72
2023/04/06 09:19:49;;;;;;;5.22;2.20;;;;;;;14.87;25.62;101815.38;5007701;28;97070;-71
2023/04/06 09:22:16;;;;;;;3.10;1.75;;;;;;;14.87;25.96;101810.03;5009121;28;98276;-72
2023/04/06 09:24:45;;;;;;;4.65;1.92;;;;;;;14.61;25.96;101804.78;5007720;28;99286;-71
2023/04/06 09:27:11;;;;;;;2.92;1.83;;;;;;;14.35;25.87;101798.56;5005675;28;96999;-71
2023/04/06 09:29:38;;;;;;;2.72;1.50;;;;;;;14.37;25.82;101795.84;5010269;28;97011;-71
2023/04/06 09:32:06;;;;;;;3.28;1.45;;;;;;;14.93;25.21;101792.97;5005278;28;99505;-71
2023/04/06 09:34:32;;;;;;;4.28;1.50;;;;;;;15.23;24.88;101796.28;5008356;28;98829;-72
2023/04/06 09:36:59;;;;;;;5.15;1.65;;;;;;;15.21;24.56;101784.81;5005544;28;97444;-71
2023/04/06 09:39:26;;;;;;;3.00;2.05;;;;;;;15.09;23.46;101800.34;5009410;28;97354;-73
2023/04/06 09:41:56;;;;;;;3.10;1.50;;;;;;;15.01;23.65;101797.09;5006035;28;99007;-71
2023/04/06 09:44:23;;;;;;;3.25;1.40;;;;;;;15.05;24.71;101797.84;5008805;28;101558;-71
2023/04/06 09:46:52;;;;;;;2.50;1.67;;;;;;;15.07;24.45;101791.53;5002830;28;98400;-72
2023/04/06 09:49:19;;;;;;;6.97;1.60;;;;;;;15.07;23.79;101788.00;5005594;28;97587;-71
2023/04/06 09:51:47;;;;;;;1.98;1.17;;;;;;;15.10;23.32;101783.44;5005157;28;100815;-72
2023/04/06 09:54:21;;;;;;;3.50;1.60;;;;;;;15.57;23.33;101782.53;5005099;28;99404;-71
2023/04/06 09:56:51;;;;;;;2.58;1.77;;;;;;;15.34;23.42;101778.97;5005737;28;96834;-70
2023/04/06 09:59:25;;;;;;;2.92;1.40;;;;;;;15.47;23.68;101766.91;5008581;28;97024;-71
2023/04/06 10:01:52;;;;;;;5.40;1.58;;;;;;;15.66;24.04;101772.41;5007048;28;98091;-71
2023/04/06 10:04:29;;;;;;;3.58;1.90;;;;;;;15.58;23.63;101761.19;5003256;28;98953;-71
2023/04/06 10:06:56;;;;;;;3.80;1.65;;;;;;;15.74;23.95;101769.44;4998984;28;97285;-70
2023/04/06 10:09:29;;;;;;;4.20;1.88;;;;;;;15.73;23.46;101763.22;5008062;28;96818;-71
2023/04/06 10:11:56;;;;;;;4.28;1.60;;;;;;;15.82;23.46;101760.16;5004450;28;99184;-71
2023/04/06 10:14:24;;;;;;;2.15;1.38;;;;;;;15.93;22.30;101770.41;5008312;28;98903;-71
2023/04/06 10:16:51;;;;;;;2.40;1.30;;;;;;;15.06;22.61;101771.16;5006332;28;97408;-72
2023/04/06 10:19:22;;;;;;;3.03;1.50;;;;;;;14.87;22.57;101774.56;5008109;28;96852;-71
2023/04/06 10:21:52;;;;;;;5.60;1.63;;;;;;;14.95;22.13;101784.03;5007132;28;99024;-71
2023/04/06 10:24:18;;;;;;;1.67;1.30;;;;;;;15.22;21.76;101762.59;5004644;28;98827;-71
2023/04/06 10:26:57;;;;;;;1.52;1.42;;;;;;;15.27;21.79;101766.81;5004897;28;97096;-71
2023/04/06 10:29:25;;;;;;;3.47;1.42;;;;;;;15.51;22.01;101763.19;5009220;28;97398;-72
2023/04/06 10:31:51;;;;;;;2.90;1.17;;;;;;;15.62;22.11;101759.28;5008956;28;99011;-72
2023/04/06 10:34:18;;;;;;;2.75;1.40;;;;;;;15.55;22.17;101756.00;5006247;28;99195;-71
2023/04/06 10:36:44;;;;;;;2.13;1.50;;;;;;;15.78;22.35;101763.91;5007459;28;96960;-72
2023/04/06 10:39:11;;;;;;;5.53;1.63;;;;;;;15.51;22.55;101757.00;5006308;28;97321;-71
2023/04/06 10:41:42;;;;;;;1.90;1.52;;;;;;;15.14;22.26;101774.41;5004170;28;99266;-72
2023/04/06 10:44:08;;;;;;;2.53;1.73;;;;;;;15.35;22.22;101755.88;5007690;28;100229;-71
2023/04/06 10:46:36;;;;;;;5.93;1.83;;;;;;;15.61;21.74;101761.06;5005626;28;97618;-71
2023/04/06 10:49:11;;;;;;;2.03;1.80;;;;;;;15.59;21.46;101748.72;5009290;28;97062;-73
2023/04/06 10:51:40;;;;;;;2.95;1.60;;;;;;;15.36;20.80;101753.13;5010068;28;99325;-72
2023/04/06 10:54:07;;;;;;;2.63;1.60;;;;;;;15.58;21.25;101750.53;5007109;28;100206;-71
2023/04/06 10:56:38;;;;;;;2.97;1.70;;;;;;;15.59;22.00;101751.38;5004046;28;97611;-71
2023/04/06 10:59:06;;;;;;;3.28;1.55;;;;;;;15.85;21.58;101751.19;5009142;28;96821;-70
2023/04/06 11:01:32;;;;;;;1.80;1.70;;;;;;;15.70;20.87;101770.47;5011062;28;99090;-72
2023/04/06 11:04:00;;;;;;;2.60;1.60;;;;;;;15.45;21.39;101750.13;5011955;28;99465;-72
2023/04/06 11:06:30;;;;;;;2.90;1.52;;;;;;;15.15;21.14;101738.00;5006327;28;97355;-71
2023/04/06 11:08:58;;;;;;;3.15;1.83;;;;;;;15.14;21.50;101746.91;5006816;28;97213;-70
2023/04/06 11:11:26;;;;;;;3.25;1.52;;;;;;;15.32;21.87;101743.53;5010032;28;99479;-72
2023/04/06 11:13:54;;;;;;;2.50;1.40;;;;;;;15.09;21.92;101735.59;5003699;28;99184;-72
2023/04/06 11:16:22;;;;;;;2.53;1.83;;;;;;;15.34;21.77;101744.34;5006354;28;98160;-72
2023/04/06 11:18:51;;;;;;;3.45;1.80;;;;;;;15.57;21.92;101731.94;5006039;28;96857;-71
2023/04/06 11:21:19;;;;;;;2.28;1.60;;;;;;;15.48;21.73;101730.50;5012082;28;100321;-72
2023/04/06 11:23:46;;;;;;;2.35;1.23;;;;;;;15.60;21.64;101723.81;5006921;28;97537;-72
2023/04/06 11:26:14;;;;;;;4.63;1.70;;;;;;;15.78;21.38;101737.25;5010296;28;97279;-71